createdAt,value
2023-04-03T00:00:18.258Z,0.98
2023-04-03T00:05:19.847Z,0.93
2023-04-03T00:10:21.485Z,0.90
2023-04-03T00:15:23.092Z,0.93
2023-04-03T00:20:24.769Z,0.90
2023-04-03T00:25:26.436Z,1.10
2023-04-03T00:30:28.213Z,1.30
2023-04-03T00:35:30.322Z,1.00
2023-04-03T00:40:37.391Z,1.00
2023-04-03T00:45:42.333Z,1.33
2023-04-03T00:50:45.484Z,1.00
2023-04-03T00:55:48.481Z,1.20
2023-04-03T01:00:58.580Z,1.20
2023-04-03T01:06:00.745Z,1.17
2023-04-03T01:11:02.439Z,1.02
2023-04-03T01:16:06.422Z,1.10
2023-04-03T01:21:36.921Z,1.30
2023-04-03T01:26:38.982Z,1.30
2023-04-03T01:31:55.294Z,1.15
2023-04-03T01:36:57.834Z,1.10
2023-04-03T01:42:00.390Z,1.40
2023-04-03T01:47:02.225Z,1.23
2023-04-03T01:52:04.140Z,1.30
2023-04-03T01:57:06.002Z,1.30
2023-04-03T02:02:08.110Z,1.02
2023-04-03T02:07:09.761Z,1.45
2023-04-03T02:12:11.433Z,1.02
2023-04-03T02:17:13.056Z,1.23
2023-04-03T02:22:14.895Z,0.90
2023-04-03T02:27:16.975Z,1.35
2023-04-03T02:32:18.626Z,1.40
2023-04-03T02:37:20.249Z,1.10
2023-04-03T02:42:21.905Z,1.30
2023-04-03T02:47:23.584Z,1.30
2023-04-03T02:52:25.424Z,1.20
2023-04-03T02:57:27.132Z,1.90
2023-04-03T03:02:28.880Z,1.20
2023-04-03T03:07:30.540Z,0.98
2023-04-03T03:12:32.748Z,1.20
2023-04-03T03:17:36.974Z,1.15
2023-04-03T03:22:38.661Z,1.00
2023-04-03T03:27:40.836Z,1.15
2023-04-03T03:32:42.558Z,1.30
2023-04-03T03:37:44.209Z,1.20
2023-04-03T03:42:45.841Z,1.25
2023-04-03T03:47:47.483Z,1.10
2023-04-03T03:52:49.107Z,1.10
2023-04-03T03:57:50.822Z,1.00
2023-04-03T04:02:52.478Z,1.27
2023-04-03T04:07:54.213Z,1.48
2023-04-03T04:12:57.344Z,1.15
2023-04-03T04:18:00.378Z,1.15
2023-04-03T04:23:02.101Z,1.48
2023-04-03T04:28:03.749Z,1.13
2023-04-03T04:33:05.963Z,1.10
2023-04-03T04:38:09.716Z,1.15
2023-04-03T04:43:15.320Z,1.30
2023-04-03T04:48:17.181Z,1.70
2023-04-03T04:53:18.793Z,1.35
2023-04-03T04:58:21.199Z,1.40
2023-04-03T05:03:22.809Z,1.20
2023-04-03T05:08:24.652Z,1.33
2023-04-03T05:13:26.303Z,1.10
2023-04-03T05:18:28.038Z,1.33
2023-04-03T05:23:29.746Z,1.00
2023-04-03T05:28:31.389Z,2.40
2023-04-03T05:33:33.034Z,2.40
2023-04-03T05:38:34.765Z,1.45
2023-04-03T05:43:38.808Z,2.08
2023-04-03T05:48:40.919Z,1.80
2023-04-03T05:53:44.260Z,1.45
2023-04-03T05:58:46.010Z,1.67
2023-04-03T06:03:47.713Z,1.63
2023-04-03T06:08:51.233Z,1.40
2023-04-03T06:13:52.892Z,1.30
2023-04-03T06:18:54.464Z,1.10
2023-04-03T06:23:56.469Z,0.80
2023-04-03T06:28:58.434Z,0.88
2023-04-03T06:34:00.562Z,1.08
2023-04-03T06:39:02.717Z,1.10
2023-04-03T06:44:04.487Z,1.20
2023-04-03T06:49:11.512Z,1.00
2023-04-03T06:54:13.786Z,1.17
2023-04-03T06:59:16.012Z,1.23
2023-04-03T07:04:17.753Z,1.40
2023-04-03T07:09:19.577Z,1.30
2023-04-03T07:14:22.360Z,1.17
2023-04-03T07:19:25.557Z,0.90
2023-04-03T07:24:27.343Z,0.80
2023-04-03T07:29:29.002Z,0.90
2023-04-03T07:34:31.702Z,0.57
2023-04-03T07:39:33.810Z,0.63
2023-04-03T07:44:36.499Z,0.73
2023-04-03T07:49:40.706Z,0.70
2023-04-03T07:54:43.269Z,0.60
2023-04-03T07:59:44.918Z,0.88
2023-04-03T08:04:46.690Z,0.70
2023-04-03T08:09:48.470Z,0.63
2023-04-03T08:14:50.111Z,0.60
2023-04-03T08:19:51.697Z,0.63
2023-04-03T08:24:59.406Z,0.50
2023-04-03T08:30:01.501Z,0.63
2023-04-03T08:35:04.405Z,0.50
2023-04-03T08:40:12.049Z,0.50
2023-04-03T08:45:21.539Z,0.60
2023-04-03T08:50:31.040Z,0.70
2023-04-03T08:55:36.424Z,0.57
2023-04-03T09:00:52.124Z,0.85
2023-04-03T09:06:17.209Z,0.40
2023-04-03T09:11:46.110Z,1.05
2023-04-03T09:16:57.843Z,0.60
2023-04-03T09:22:45.786Z,0.57
2023-04-03T09:27:52.307Z,0.52
2023-04-03T09:32:56.370Z,0.45
2023-04-03T09:38:19.571Z,0.55
2023-04-03T09:43:27.118Z,0.40
2023-04-03T09:48:29.330Z,0.60
2023-04-03T09:53:33.688Z,0.50
2023-04-03T09:58:49.536Z,0.45
2023-04-03T10:04:12.639Z,0.40
2023-04-03T10:09:26.518Z,0.50
2023-04-03T10:14:30.039Z,0.40
2023-04-03T10:19:47.211Z,0.50
2023-04-03T10:25:01.584Z,0.70
2023-04-03T10:30:21.497Z,0.38
2023-04-03T10:35:41.420Z,0.70
2023-04-03T10:40:58.677Z,0.40
2023-04-03T10:46:17.701Z,0.47
2023-04-03T10:51:22.129Z,0.50
2023-04-03T10:56:40.623Z,0.57
2023-04-03T11:01:45.187Z,0.50
2023-04-03T11:06:58.260Z,0.60
2023-04-03T11:12:31.062Z,0.70
2023-04-03T11:17:44.374Z,0.70
2023-04-03T11:22:58.623Z,0.90
2023-04-03T11:28:03.562Z,0.88
2023-04-03T11:33:20.218Z,0.90
2023-04-03T11:43:57.561Z,0.80
2023-04-03T11:48:59.756Z,0.80
2023-04-03T11:54:44.453Z,0.80
2023-04-03T11:59:47.224Z,0.70
2023-04-03T12:05:29.186Z,0.82
2023-04-03T12:10:32.672Z,0.63
2023-04-03T12:15:37.950Z,0.88
2023-04-03T12:20:52.177Z,0.95
2023-04-03T12:26:01.595Z,1.08
2023-04-03T12:31:06.650Z,0.70
2023-04-03T12:36:19.961Z,0.70
2023-04-03T12:41:40.849Z,0.50
2023-04-03T12:46:53.601Z,0.32
2023-04-03T12:51:55.644Z,0.50
2023-04-03T12:57:20.402Z,0.40
2023-04-03T13:02:31.106Z,0.63
2023-04-03T13:07:35.828Z,0.40
2023-04-03T13:12:48.294Z,0.80
2023-04-03T13:17:52.696Z,0.57
2023-04-03T13:23:03.567Z,0.40
2023-04-03T13:28:13.768Z,0.40
2023-04-03T13:33:27.831Z,0.65
2023-04-03T13:38:34.037Z,0.50
2023-04-03T13:43:38.118Z,0.70
2023-04-03T13:48:43.832Z,0.70
2023-04-03T13:53:53.565Z,0.80
2023-04-03T13:59:04.143Z,0.68
2023-04-03T14:04:16.148Z,0.52
2023-04-03T14:09:19.644Z,0.50
2023-04-03T14:14:31.774Z,0.50
2023-04-03T14:19:36.812Z,0.52
2023-04-03T14:24:39.651Z,0.52
2023-04-03T14:29:41.259Z,0.85
2023-04-03T14:34:44.341Z,0.60
2023-04-03T14:39:46.807Z,0.60
2023-04-03T14:44:48.661Z,0.75
2023-04-03T14:49:50.658Z,0.93
2023-04-03T14:54:53.769Z,0.60
2023-04-03T14:59:55.560Z,0.63
2023-04-03T15:04:58.510Z,0.50
2023-04-03T15:10:18.966Z,0.70
2023-04-03T15:15:22.802Z,0.50
2023-04-03T15:20:27.445Z,0.77
2023-04-03T15:25:29.921Z,0.55
2023-04-03T15:30:31.787Z,0.70
2023-04-03T15:35:33.616Z,0.70
2023-04-03T15:40:35.508Z,0.80
2023-04-03T15:45:38.507Z,0.75
2023-04-03T15:50:41.258Z,1.02
2023-04-03T15:55:43.067Z,0.93
2023-04-03T16:00:44.943Z,0.80
2023-04-03T16:05:47.075Z,0.88
2023-04-03T16:10:48.813Z,0.90
2023-04-03T16:15:50.595Z,0.88
2023-04-03T16:20:52.469Z,1.30
2023-04-03T16:25:54.290Z,1.10
2023-04-03T16:30:56.134Z,1.02
2023-04-03T16:35:57.967Z,0.85
2023-04-03T16:41:03.563Z,0.63
2023-04-03T16:46:05.591Z,1.00
2023-04-03T16:51:07.409Z,0.85
2023-04-03T16:56:09.145Z,0.93
2023-04-03T17:01:19.423Z,1.10
2023-04-03T17:06:24.430Z,0.90
2023-04-03T17:11:26.761Z,1.15
2023-04-03T17:16:30.258Z,0.80
2023-04-03T17:21:34.428Z,0.95
2023-04-03T17:26:37.825Z,0.75
2023-04-03T17:31:39.989Z,1.00
2023-04-03T17:36:41.874Z,1.00
2023-04-03T17:41:45.913Z,1.20
2023-04-03T17:46:48.156Z,1.02
2023-04-03T17:51:49.891Z,0.90
2023-04-03T17:56:52.492Z,0.80
2023-04-03T18:01:54.774Z,0.75
2023-04-03T18:06:57.015Z,0.90
2023-04-03T18:12:02.945Z,1.05
2023-04-03T18:17:06.693Z,1.37
2023-04-03T18:22:19.523Z,1.05
2023-04-03T18:27:26.547Z,1.02
2023-04-03T18:32:29.157Z,1.00
2023-04-03T18:37:31.904Z,1.05
2023-04-03T18:42:34.106Z,0.93
2023-04-03T18:47:37.599Z,1.13
2023-04-03T18:52:40.142Z,0.90
2023-04-03T18:57:42.657Z,1.13
2023-04-03T19:02:46.787Z,1.30
2023-04-03T19:07:50.810Z,1.23
2023-04-03T19:12:53.023Z,1.40
2023-04-03T19:17:55.430Z,1.63
2023-04-03T19:22:58.366Z,1.40
2023-04-03T19:28:00.984Z,1.10
2023-04-03T19:33:03.707Z,1.35
2023-04-03T19:38:06.455Z,1.10
2023-04-03T19:43:10.380Z,0.70
2023-04-03T19:48:12.894Z,0.80
2023-04-03T19:53:22.900Z,0.90
2023-04-03T19:58:28.030Z,0.90
2023-04-03T20:03:30.739Z,0.93
2023-04-03T20:08:34.912Z,0.80
2023-04-03T20:13:38.637Z,0.90
2023-04-03T20:18:42.129Z,0.80
2023-04-03T20:23:44.030Z,0.77
2023-04-03T20:28:45.720Z,0.98
2023-04-03T20:33:48.981Z,0.80
2023-04-03T20:38:52.817Z,0.52
2023-04-03T20:43:54.665Z,0.80
2023-04-03T20:48:57.921Z,0.70
2023-04-03T20:53:59.556Z,1.00
2023-04-03T20:59:04.832Z,0.88
2023-04-03T21:04:46.469Z,0.68
2023-04-03T21:10:25.385Z,0.98
2023-04-03T21:16:00.113Z,1.20
2023-04-03T21:21:03.020Z,0.93
2023-04-03T21:26:04.624Z,0.95
2023-04-03T21:31:06.435Z,0.82
2023-04-03T21:36:09.209Z,1.17
2023-04-03T21:41:11.024Z,0.98
2023-04-03T21:46:12.760Z,1.00
2023-04-03T21:51:14.361Z,1.08
2023-04-03T21:56:15.938Z,1.00
2023-04-03T22:01:18.963Z,0.80
2023-04-03T22:06:20.706Z,0.90
2023-04-03T22:11:24.687Z,1.35
2023-04-03T22:16:26.755Z,1.23
2023-04-03T22:21:28.509Z,0.90
2023-04-03T22:26:30.104Z,1.02
2023-04-03T22:31:31.728Z,0.98
2023-04-03T22:36:33.344Z,0.85
2023-04-03T22:41:34.975Z,1.10
2023-04-03T22:46:36.621Z,1.00
2023-04-03T22:51:38.241Z,1.05
2023-04-03T22:56:39.826Z,0.93
2023-04-03T23:01:41.813Z,0.85
2023-04-03T23:06:43.653Z,1.20
2023-04-03T23:11:45.298Z,0.90
2023-04-03T23:16:46.935Z,0.90
2023-04-03T23:46:31.213Z,1.00
2023-04-03T23:51:32.909Z,0.88
2023-04-03T23:56:34.613Z,1.00
